N869KN TGPY-TGPY
Flight info
| Callsign | N869KN |
|---|---|
| Flight time | N/A |
| Altitude | 1500 |
| Route | DCT GND DCT |
| Aircraft | DA42/L-SBDGRY/S |
Departure
| Time | 2026-05-04 13:24 |
|---|---|
| Airport | Maurice Bishop International Airport (TGPY) |
Arrival
| Time | N/A |
|---|---|
| Airport | Maurice Bishop International Airport (TGPY) |
| Time | Latitude | Longitude | Altitude | Speed | Heading |
|---|---|---|---|---|---|
| 2026-05-04 13:22 | 12.00486 | -61.78596 | 62 ft | 0 kts | 177° |
| 2026-05-04 13:22 | 12.00462 | -61.78596 | 60 ft | 10 kts | 178° |
| 2026-05-04 13:23 | 12.00408 | -61.78542 | 58 ft | 14 kts | 90° |
| 2026-05-04 13:23 | 12.00407 | -61.78302 | 56 ft | 58 kts | 90° |
| 2026-05-04 13:23 | 12.00398 | -61.77811 | 115 ft | 76 kts | 94° |
| 2026-05-04 13:23 | 12.00396 | -61.77277 | 401 ft | 72 kts | 92° |
| 2026-05-04 13:24 | 12.00431 | -61.76679 | 525 ft | 95 kts | 89° |
| 2026-05-04 13:24 | 12.00501 | -61.75992 | 861 ft | 95 kts | 85° |
| 2026-05-04 13:24 | 12.00554 | -61.75324 | 1117 ft | 96 kts | 85° |
| 2026-05-04 13:25 | 12.00611 | -61.74512 | 1421 ft | 88 kts | 87° |
| 2026-05-04 13:25 | 12.00641 | -61.74146 | 1509 ft | 92 kts | 86° |
| 2026-05-04 13:25 | 12.00713 | -61.73415 | 1500 ft | 116 kts | 87° |
| 2026-05-04 13:25 | 12.00799 | -61.72554 | 1495 ft | 125 kts | 86° |
| 2026-05-04 13:26 | 12.00872 | -61.71657 | 1510 ft | 130 kts | 85° |
| 2026-05-04 13:26 | 12.00966 | -61.70727 | 1493 ft | 134 kts | 85° |
| 2026-05-04 13:26 | 12.01114 | -61.69788 | 1500 ft | 135 kts | 82° |
| 2026-05-04 13:26 | 12.01304 | -61.68852 | 1497 ft | 134 kts | 82° |
| 2026-05-04 13:27 | 12.01471 | -61.67912 | 1493 ft | 134 kts | 81° |
| 2026-05-04 13:27 | 12.01621 | -61.66972 | 1493 ft | 133 kts | 82° |
| 2026-05-04 13:27 | 12.01771 | -61.66052 | 1492 ft | 130 kts | 82° |
| 2026-05-04 13:27 | 12.01934 | -61.65156 | 1496 ft | 128 kts | 81° |
| 2026-05-04 13:28 | 12.02044 | -61.64559 | 1501 ft | 129 kts | 82° |
| 2026-05-04 13:28 | 12.02207 | -61.63661 | 1496 ft | 129 kts | 81° |
| 2026-05-04 13:28 | 12.02414 | -61.62457 | 1498 ft | 131 kts | 81° |
| 2026-05-04 13:28 | 12.02558 | -61.61539 | 1500 ft | 131 kts | 82° |
| 2026-05-04 13:29 | 12.02707 | -61.60620 | 1502 ft | 131 kts | 81° |
| 2026-05-04 13:29 | 12.02846 | -61.59696 | 1497 ft | 132 kts | 82° |
| 2026-05-04 13:29 | 12.02948 | -61.59066 | 1504 ft | 134 kts | 82° |
| 2026-05-04 13:29 | 12.03106 | -61.58114 | 1504 ft | 137 kts | 82° |
| 2026-05-04 13:30 | 12.03314 | -61.57168 | 1491 ft | 139 kts | 67° |
| 2026-05-04 13:30 | 12.04040 | -61.56550 | 1490 ft | 145 kts | 20° |
| 2026-05-04 13:30 | 12.05044 | -61.56622 | 1509 ft | 149 kts | 347° |
| 2026-05-04 13:30 | 12.06033 | -61.56988 | 1508 ft | 153 kts | 345° |
| 2026-05-04 13:31 | 12.07028 | -61.57396 | 1506 ft | 155 kts | 343° |
| 2026-05-04 13:31 | 12.08035 | -61.57802 | 1503 ft | 155 kts | 344° |
| 2026-05-04 13:31 | 12.09031 | -61.58206 | 1503 ft | 154 kts | 343° |
| 2026-05-04 13:31 | 12.10024 | -61.58608 | 1500 ft | 153 kts | 345° |
| 2026-05-04 13:32 | 12.11000 | -61.59033 | 1495 ft | 151 kts | 343° |
| 2026-05-04 13:32 | 12.11955 | -61.59454 | 1492 ft | 148 kts | 344° |
| 2026-05-04 13:32 | 12.12327 | -61.59622 | 1495 ft | 147 kts | 344° |
| 2026-05-04 13:45 | 12.12628 | -61.59761 | 1500 ft | 147 kts | 344° |
| 2026-05-04 13:45 | 12.13516 | -61.60122 | 1307 ft | 126 kts | 356° |
| 2026-05-04 13:45 | 12.14217 | -61.60330 | 1049 ft | 101 kts | 314° |
| 2026-05-04 13:45 | 12.14524 | -61.60994 | 430 ft | 107 kts | 277° |
| 2026-05-04 13:46 | 12.14362 | -61.61693 | 91 ft | 86 kts | 249° |
| 2026-05-04 13:46 | 12.14247 | -61.62112 | 122 ft | 27 kts | 253° |
| 2026-05-04 13:46 | 12.14236 | -61.62163 | 131 ft | 16 kts | 79° |
| 2026-05-04 13:46 | 12.14275 | -61.62011 | 113 ft | 27 kts | 83° |
| 2026-05-04 13:47 | 12.14328 | -61.61814 | 95 ft | 32 kts | 73° |
| 2026-05-04 13:47 | 12.14384 | -61.61625 | 82 ft | 28 kts | 75° |
| 2026-05-04 13:47 | 12.14403 | -61.61532 | 78 ft | 0 kts | 85° |
| 2026-05-04 13:48 | 12.14400 | -61.61515 | 78 ft | 0 kts | 112° |
| 2026-05-04 13:48 | 12.14385 | -61.61495 | 70 ft | 7 kts | 135° |
| 2026-05-04 13:49 | 12.14354 | -61.61459 | 73 ft | 0 kts | 87° |
| 2026-05-04 13:50 | 12.14354 | -61.61460 | 73 ft | 0 kts | 87° |